NCAR-RAP Real-Time Weather Data

Output produced by METARs form (26 May 2022  07:53 UTC)
found at http://weather.rap.ucar.edu/surface/
 
Conditions at: KHQZ observed 26 May 2022  07:35 UTC
Temperature: 15.1°C (59°F)
Dewpoint: 10.0°C (50°F) [RH = 72%]
Pressure (altimeter): 29.90 inches Hg (1012.6 mb)
Winds: from the WSW (250 degrees) at 5 MPH (4 knots; 2.1 m/s)
Visibility: 10 or more miles (16+ km)
Ceiling: at least 12,000 feet AGL
Clouds: sky clear below 12,000 feet AGL
Present Weather: automated observation with no human augmentation;
there may or may not be significant weather present at this time
KHQZ 260735Z AUTO 25004KT 10SM CLR 15/10 A2990 RMK AO1 T01510100